createdAt,value
2017-09-05T00:00:12.547Z,0
2017-09-05T00:01:14.967Z,0
2017-09-05T00:02:17.378Z,0
2017-09-05T00:03:19.802Z,0
2017-09-05T00:04:22.220Z,0
2017-09-05T00:05:24.640Z,0
2017-09-05T00:06:27.059Z,0
2017-09-05T00:07:29.485Z,0
2017-09-05T00:08:31.909Z,0
2017-09-05T00:09:34.338Z,0
2017-09-05T00:10:36.754Z,0
2017-09-05T00:11:39.176Z,0
2017-09-05T00:12:41.589Z,0
2017-09-05T00:13:44.019Z,0
2017-09-05T00:14:46.444Z,0
2017-09-05T00:15:48.859Z,0
2017-09-05T00:16:51.283Z,0
2017-09-05T00:17:53.706Z,0
2017-09-05T00:18:56.127Z,0
2017-09-05T00:19:58.554Z,0
2017-09-05T00:21:00.983Z,0
2017-09-05T00:22:03.394Z,0
2017-09-05T00:23:05.829Z,0
2017-09-05T00:24:08.250Z,0
2017-09-05T00:25:10.662Z,0
2017-09-05T00:26:13.091Z,0
2017-09-05T00:27:15.513Z,0
2017-09-05T00:28:17.936Z,0
2017-09-05T00:29:20.358Z,0
2017-09-05T00:30:22.773Z,0
2017-09-05T00:31:25.196Z,0
2017-09-05T00:32:27.627Z,0
2017-09-05T00:33:30.042Z,0
2017-09-05T00:34:32.464Z,0
2017-09-05T00:35:34.889Z,0
2017-09-05T00:36:37.318Z,0
2017-09-05T00:37:39.738Z,0
2017-09-05T00:38:42.161Z,0
2017-09-05T00:39:44.590Z,0
2017-09-05T00:40:47.009Z,0
2017-09-05T00:41:49.771Z,0
2017-09-05T00:42:52.192Z,0
2017-09-05T00:43:54.610Z,0
2017-09-05T00:44:57.037Z,0
2017-09-05T00:45:59.461Z,0
2017-09-05T00:47:01.882Z,0
2017-09-05T00:48:04.302Z,0
2017-09-05T00:49:06.723Z,0
2017-09-05T00:50:09.144Z,0
2017-09-05T00:51:11.563Z,0
2017-09-05T00:52:13.987Z,0
2017-09-05T00:53:16.751Z,0
2017-09-05T00:54:19.169Z,0
2017-09-05T00:55:21.590Z,0
2017-09-05T00:56:24.005Z,0
2017-09-05T00:57:26.424Z,0
2017-09-05T00:58:28.862Z,0
2017-09-05T00:59:31.287Z,0
2017-09-05T01:00:33.707Z,0
2017-09-05T01:01:36.131Z,0
2017-09-05T01:02:38.548Z,0
2017-09-05T01:03:40.971Z,0
2017-09-05T01:04:43.432Z,0
2017-09-05T01:05:45.845Z,0
2017-09-05T01:06:48.260Z,0
2017-09-05T01:07:50.681Z,0
2017-09-05T01:08:53.101Z,0
2017-09-05T01:09:55.528Z,0
2017-09-05T01:10:57.937Z,0
2017-09-05T01:12:00.362Z,0
2017-09-05T01:13:02.790Z,0
2017-09-05T01:14:05.208Z,0
2017-09-05T01:15:07.632Z,0
2017-09-05T01:16:10.053Z,0
2017-09-05T01:17:12.465Z,0
2017-09-05T01:18:14.897Z,0
2017-09-05T01:19:17.320Z,0
2017-09-05T01:20:20.080Z,0
2017-09-05T01:21:22.507Z,0
2017-09-05T01:22:24.928Z,0
2017-09-05T01:23:27.344Z,0
2017-09-05T01:24:29.768Z,0
2017-09-05T01:25:32.188Z,0
2017-09-05T01:26:34.624Z,0
2017-09-05T01:27:37.032Z,0
2017-09-05T01:28:39.451Z,0
2017-09-05T01:29:41.876Z,0
2017-09-05T01:30:44.302Z,0
2017-09-05T01:31:46.711Z,0
2017-09-05T01:32:49.138Z,0
2017-09-05T01:33:51.560Z,0
2017-09-05T01:34:53.986Z,0
2017-09-05T01:35:56.401Z,0
2017-09-05T01:36:58.840Z,0
2017-09-05T01:38:01.248Z,0
2017-09-05T01:39:03.671Z,0
2017-09-05T01:40:06.092Z,0
2017-09-05T01:41:08.513Z,0
2017-09-05T01:42:10.938Z,0
2017-09-05T01:43:13.363Z,0
2017-09-05T01:44:15.783Z,0
2017-09-05T01:45:18.208Z,0
2017-09-05T01:46:20.630Z,0
2017-09-05T01:47:23.050Z,0
2017-09-05T01:48:25.464Z,0
2017-09-05T01:49:27.884Z,0
2017-09-05T01:50:30.307Z,0
2017-09-05T01:51:32.728Z,0
2017-09-05T01:52:35.486Z,0
2017-09-05T01:53:37.902Z,0
2017-09-05T01:54:40.315Z,0
2017-09-05T01:55:42.745Z,0
2017-09-05T01:56:45.159Z,0
2017-09-05T01:57:47.579Z,0
2017-09-05T01:58:50.005Z,0
2017-09-05T01:59:52.430Z,0
2017-09-05T02:00:54.853Z,0
2017-09-05T02:01:57.625Z,0
2017-09-05T02:03:00.039Z,0
2017-09-05T02:04:02.803Z,0
2017-09-05T02:05:05.235Z,0
2017-09-05T02:06:07.655Z,0
2017-09-05T02:07:10.077Z,0
2017-09-05T02:08:12.841Z,0
2017-09-05T02:09:15.257Z,0
2017-09-05T02:10:17.675Z,0
2017-09-05T02:11:20.095Z,0
2017-09-05T02:12:22.521Z,0
2017-09-05T02:13:24.940Z,0
2017-09-05T02:14:27.368Z,0
2017-09-05T02:15:29.789Z,0
2017-09-05T02:16:32.213Z,0
2017-09-05T02:17:34.631Z,0
2017-09-05T02:18:37.059Z,0
2017-09-05T02:19:39.469Z,0
2017-09-05T02:20:41.896Z,0
2017-09-05T02:21:44.310Z,0
2017-09-05T02:22:47.069Z,0
2017-09-05T02:23:49.496Z,0
2017-09-05T02:24:51.917Z,0
2017-09-05T02:25:54.339Z,0
2017-09-05T02:26:56.768Z,0
2017-09-05T02:27:59.179Z,0
2017-09-05T02:29:01.615Z,0
2017-09-05T02:30:04.033Z,0
2017-09-05T02:31:06.796Z,0
2017-09-05T02:32:09.213Z,0
2017-09-05T02:33:11.631Z,0
2017-09-05T02:34:14.047Z,0
2017-09-05T02:35:16.463Z,0
2017-09-05T02:36:18.892Z,0
2017-09-05T02:37:21.311Z,0
2017-09-05T02:38:24.080Z,0
2017-09-05T02:39:26.497Z,0
2017-09-05T02:40:28.926Z,0
2017-09-05T02:41:31.347Z,0
2017-09-05T02:42:33.772Z,0
2017-09-05T02:43:36.186Z,0
2017-09-05T02:44:38.609Z,0
2017-09-05T02:45:41.038Z,0
2017-09-05T02:46:43.466Z,0
2017-09-05T02:47:45.882Z,0
2017-09-05T02:48:48.301Z,0
2017-09-05T02:49:50.723Z,0
2017-09-05T02:50:53.146Z,0
2017-09-05T02:51:55.568Z,0
2017-09-05T02:52:58.327Z,0
2017-09-05T02:54:00.754Z,0
2017-09-05T02:55:03.171Z,0
2017-09-05T02:56:05.595Z,0
2017-09-05T02:57:08.016Z,0
2017-09-05T02:58:10.441Z,0
2017-09-05T02:59:13.199Z,0
2017-09-05T03:00:15.624Z,0
2017-09-05T03:01:18.383Z,0
2017-09-05T03:02:20.802Z,0
2017-09-05T03:03:23.226Z,0
2017-09-05T03:04:25.645Z,0
2017-09-05T03:05:28.062Z,0
2017-09-05T03:06:30.481Z,0
2017-09-05T03:07:32.902Z,0
2017-09-05T03:08:35.315Z,0
2017-09-05T03:09:37.749Z,0
2017-09-05T03:10:40.167Z,0
2017-09-05T03:11:42.582Z,0
2017-09-05T03:12:45.007Z,0
2017-09-05T03:13:47.430Z,0
2017-09-05T03:14:49.848Z,0
2017-09-05T03:15:52.269Z,0
2017-09-05T03:16:54.683Z,0
2017-09-05T03:17:57.105Z,0
2017-09-05T03:18:59.529Z,0
2017-09-05T03:20:01.951Z,0
2017-09-05T03:21:04.723Z,0
2017-09-05T03:22:07.483Z,0
2017-09-05T03:23:09.899Z,0
2017-09-05T03:24:12.324Z,0
2017-09-05T03:25:14.745Z,0
2017-09-05T03:26:17.154Z,0
2017-09-05T03:27:19.576Z,0
2017-09-05T03:28:22.005Z,0
2017-09-05T03:29:24.419Z,0
2017-09-05T03:30:26.840Z,0
2017-09-05T03:31:29.257Z,0
2017-09-05T03:32:31.678Z,0
2017-09-05T03:33:34.114Z,0
2017-09-05T03:34:36.533Z,0
2017-09-05T03:35:38.951Z,0
2017-09-05T03:36:41.372Z,0
2017-09-05T03:37:43.794Z,0
2017-09-05T03:38:46.223Z,0
2017-09-05T03:39:48.637Z,0
2017-09-05T03:40:51.398Z,0
2017-09-05T03:41:53.818Z,0
2017-09-05T03:42:56.386Z,0
2017-09-05T03:43:58.810Z,0
2017-09-05T03:45:01.567Z,0
2017-09-05T03:46:03.985Z,0
2017-09-05T03:47:06.406Z,0
2017-09-05T03:48:08.829Z,0
2017-09-05T03:49:11.244Z,0
2017-09-05T03:50:13.669Z,0
2017-09-05T03:51:16.091Z,0
2017-09-05T03:52:18.519Z,0
2017-09-05T03:53:20.940Z,0
2017-09-05T03:54:23.355Z,0
2017-09-05T03:55:25.778Z,0
2017-09-05T03:56:28.197Z,0
2017-09-05T03:57:30.625Z,0
2017-09-05T03:58:33.046Z,0
2017-09-05T03:59:35.459Z,0
2017-09-05T04:00:37.882Z,0
2017-09-05T04:01:40.298Z,0
2017-09-05T04:02:42.719Z,0
2017-09-05T04:03:45.480Z,0
2017-09-05T04:04:47.897Z,0
2017-09-05T04:05:50.323Z,0
2017-09-05T04:06:52.739Z,0
2017-09-05T04:07:55.162Z,0
2017-09-05T04:08:57.589Z,0
2017-09-05T04:10:00.005Z,0
2017-09-05T04:11:02.425Z,0
2017-09-05T04:12:04.844Z,0
2017-09-05T04:13:07.264Z,0
2017-09-05T04:14:09.686Z,0
2017-09-05T04:15:12.110Z,0
2017-09-05T04:16:14.534Z,0
2017-09-05T04:17:16.960Z,0
2017-09-05T04:18:19.378Z,0
2017-09-05T04:19:21.798Z,0
2017-09-05T04:20:24.224Z,0
2017-09-05T04:21:26.639Z,0
2017-09-05T04:22:29.060Z,0
2017-09-05T04:23:31.490Z,0
2017-09-05T04:24:33.908Z,0
2017-09-05T04:25:36.331Z,1
2017-09-05T04:26:38.753Z,1
2017-09-05T04:27:41.174Z,1
2017-09-05T04:28:44.306Z,1
2017-09-05T04:29:46.732Z,1
2017-09-05T04:30:49.145Z,1
2017-09-05T04:31:51.575Z,1
2017-09-05T04:32:53.990Z,2
2017-09-05T04:33:56.415Z,2
2017-09-05T04:34:58.832Z,2
2017-09-05T04:36:01.257Z,2
2017-09-05T04:37:03.679Z,3
2017-09-05T04:38:06.101Z,3
2017-09-05T04:39:08.518Z,3
2017-09-05T04:40:10.943Z,3
2017-09-05T04:41:13.355Z,4
2017-09-05T04:42:15.788Z,4
2017-09-05T04:43:18.202Z,4
2017-09-05T04:44:20.620Z,5
2017-09-05T04:45:23.042Z,5
2017-09-05T04:46:25.461Z,5
2017-09-05T04:47:27.873Z,6
2017-09-05T04:48:30.303Z,6
2017-09-05T04:49:32.717Z,7
2017-09-05T04:50:35.485Z,7
2017-09-05T04:51:37.911Z,7
2017-09-05T04:52:40.330Z,8
2017-09-05T04:53:42.750Z,8
2017-09-05T04:54:45.179Z,9
2017-09-05T04:55:47.595Z,9
2017-09-05T04:56:50.033Z,9
2017-09-05T04:57:52.451Z,10
2017-09-05T04:58:54.872Z,10
2017-09-05T04:59:57.299Z,11
2017-09-05T05:00:59.719Z,11
2017-09-05T05:02:02.133Z,12
2017-09-05T05:03:04.557Z,12
2017-09-05T05:04:06.975Z,12
2017-09-05T05:05:09.402Z,13
2017-09-05T05:06:12.177Z,13
2017-09-05T05:07:14.602Z,14
2017-09-05T05:08:17.019Z,14
2017-09-05T05:09:19.442Z,15
2017-09-05T05:10:21.862Z,15
2017-09-05T05:11:24.290Z,16
2017-09-05T05:12:26.711Z,16
2017-09-05T05:13:29.128Z,17
2017-09-05T05:14:31.551Z,17
2017-09-05T05:15:33.990Z,18
2017-09-05T05:16:36.406Z,18
2017-09-05T05:17:38.830Z,19
2017-09-05T05:18:41.250Z,19
2017-09-05T05:19:43.668Z,20
2017-09-05T05:20:46.104Z,20
2017-09-05T05:21:48.524Z,21
2017-09-05T05:22:50.942Z,21
2017-09-05T05:23:53.366Z,21
2017-09-05T05:24:55.789Z,21
2017-09-05T05:25:58.218Z,22
2017-09-05T05:27:00.641Z,22
2017-09-05T05:28:03.057Z,23
2017-09-05T05:29:05.477Z,23
2017-09-05T05:30:07.912Z,24
2017-09-05T05:31:10.330Z,24
2017-09-05T05:32:12.758Z,24
2017-09-05T05:33:15.179Z,25
2017-09-05T05:34:17.619Z,25
2017-09-05T05:35:20.031Z,26
2017-09-05T05:36:22.793Z,26
2017-09-05T05:37:25.216Z,27
2017-09-05T05:38:27.642Z,27
2017-09-05T05:39:30.061Z,28
2017-09-05T05:40:32.494Z,28
2017-09-05T05:41:34.912Z,29
2017-09-05T05:42:37.339Z,30
2017-09-05T05:43:39.762Z,30
2017-09-05T05:44:42.536Z,30
2017-09-05T05:45:44.954Z,31
2017-09-05T05:46:47.382Z,31
2017-09-05T05:47:49.794Z,32
2017-09-05T05:48:52.218Z,32
2017-09-05T05:49:54.640Z,33
2017-09-05T05:50:57.063Z,34
2017-09-05T05:51:59.489Z,34
2017-09-05T05:53:01.915Z,35
2017-09-05T05:54:04.326Z,35
2017-09-05T05:55:06.765Z,36
2017-09-05T05:56:09.186Z,36
2017-09-05T05:57:11.606Z,37
2017-09-05T05:58:14.033Z,37
2017-09-05T05:59:16.455Z,38
2017-09-05T06:00:18.873Z,39
2017-09-05T06:01:21.307Z,39
2017-09-05T06:02:23.732Z,40
2017-09-05T06:03:26.148Z,40
2017-09-05T06:04:28.574Z,41
2017-09-05T06:05:31.005Z,41
2017-09-05T06:06:33.762Z,42
2017-09-05T06:07:36.183Z,43
2017-09-05T06:08:38.615Z,43
2017-09-05T06:09:41.384Z,43
2017-09-05T06:10:43.809Z,44
2017-09-05T06:11:46.235Z,44
2017-09-05T06:12:48.646Z,45
2017-09-05T06:13:51.079Z,46
2017-09-05T06:14:53.507Z,46
2017-09-05T06:15:55.928Z,47
2017-09-05T06:16:58.345Z,47
2017-09-05T06:18:00.767Z,48
2017-09-05T06:19:03.191Z,49
2017-09-05T06:20:05.627Z,49
2017-09-05T06:21:08.042Z,50
2017-09-05T06:22:10.467Z,50
2017-09-05T06:23:12.892Z,51
2017-09-05T06:24:15.318Z,51
2017-09-05T06:25:17.741Z,52
2017-09-05T06:26:20.508Z,52
2017-09-05T06:27:22.931Z,53
2017-09-05T06:28:25.359Z,53
2017-09-05T06:29:27.784Z,53
2017-09-05T06:30:30.210Z,54
2017-09-05T06:31:32.624Z,54
2017-09-05T06:32:35.047Z,55
2017-09-05T06:33:37.469Z,56
2017-09-05T06:34:39.895Z,56
2017-09-05T06:35:42.315Z,57
2017-09-05T06:36:44.752Z,57
2017-09-05T06:37:47.176Z,57
2017-09-05T06:38:49.604Z,58
2017-09-05T06:39:52.031Z,58
2017-09-05T06:40:54.455Z,59
2017-09-05T06:41:56.878Z,59
2017-09-05T06:42:59.309Z,59
2017-09-05T06:44:01.739Z,60
2017-09-05T06:45:04.166Z,60
2017-09-05T06:46:06.595Z,60
2017-09-05T06:47:09.023Z,61
2017-09-05T06:48:11.442Z,61
2017-09-05T06:49:13.875Z,61
2017-09-05T06:50:16.326Z,62
2017-09-05T06:51:18.727Z,62
2017-09-05T06:52:21.150Z,63
2017-09-05T06:53:23.571Z,63
2017-09-05T06:54:25.999Z,64
2017-09-05T06:55:28.764Z,64
2017-09-05T06:56:31.196Z,65
2017-09-05T06:57:33.630Z,65
2017-09-05T06:58:36.062Z,66
2017-09-05T06:59:38.493Z,66
2017-09-05T07:00:40.925Z,67
2017-09-05T07:01:43.362Z,67
2017-09-05T07:02:45.778Z,68
2017-09-05T07:03:48.209Z,68
2017-09-05T07:04:50.643Z,69
2017-09-05T07:05:53.062Z,70
2017-09-05T07:06:55.488Z,70
2017-09-05T07:07:57.920Z,71
2017-09-05T07:09:00.341Z,71
2017-09-05T07:10:02.782Z,72
2017-09-05T07:11:05.208Z,74
2017-09-05T07:12:07.632Z,73
2017-09-05T07:13:10.064Z,74
2017-09-05T07:14:12.837Z,75
2017-09-05T07:15:15.266Z,75
2017-09-05T07:16:17.702Z,76
2017-09-05T07:17:20.128Z,76
2017-09-05T07:18:22.553Z,77
2017-09-05T07:19:25.343Z,78
2017-09-05T07:20:27.762Z,79
2017-09-05T07:21:30.184Z,79
2017-09-05T07:22:32.622Z,80
2017-09-05T07:23:35.051Z,80
2017-09-05T07:24:37.481Z,81
2017-09-05T07:25:39.916Z,82
2017-09-05T07:26:42.337Z,82
2017-09-05T07:27:44.769Z,83
2017-09-05T07:28:47.539Z,83
2017-09-05T07:29:49.974Z,84
2017-09-05T07:30:52.404Z,84
2017-09-05T07:31:54.833Z,85
2017-09-05T07:32:57.263Z,86
2017-09-05T07:33:59.688Z,87
2017-09-05T07:35:02.124Z,87
2017-09-05T07:36:04.564Z,88
2017-09-05T07:37:06.995Z,88
2017-09-05T07:38:09.431Z,89
2017-09-05T07:39:11.861Z,90
2017-09-05T07:40:14.286Z,91
2017-09-05T07:41:16.726Z,92
2017-09-05T07:42:19.154Z,93
2017-09-05T07:43:21.573Z,94
2017-09-05T07:44:24.006Z,96
2017-09-05T07:45:26.435Z,96
2017-09-05T07:46:28.868Z,97
2017-09-05T07:47:31.302Z,98
2017-09-05T07:48:33.738Z,133
2017-09-05T07:49:36.163Z,225
2017-09-05T07:50:38.595Z,261
2017-09-05T07:51:41.032Z,283
2017-09-05T07:52:43.464Z,311
2017-09-05T07:53:45.897Z,264
2017-09-05T07:54:48.319Z,228
2017-09-05T07:55:50.753Z,229
2017-09-05T07:56:53.186Z,225
2017-09-05T07:57:55.619Z,216
2017-09-05T07:58:58.041Z,221
2017-09-05T08:00:00.475Z,222
2017-09-05T08:01:02.912Z,232
2017-09-05T08:02:05.343Z,247
2017-09-05T08:03:07.773Z,256
2017-09-05T08:04:10.210Z,253
2017-09-05T08:05:12.980Z,537
2017-09-05T08:06:15.409Z,596
2017-09-05T08:07:17.846Z,331
2017-09-05T08:08:20.273Z,312
2017-09-05T08:09:22.701Z,331
2017-09-05T08:10:25.136Z,308
2017-09-05T08:11:27.573Z,287
2017-09-05T08:12:30.003Z,279
2017-09-05T08:13:32.437Z,265
2017-09-05T08:14:34.864Z,295
2017-09-05T08:15:37.302Z,325
2017-09-05T08:16:39.739Z,387
2017-09-05T08:17:42.170Z,457
2017-09-05T08:18:44.616Z,488
2017-09-05T08:19:47.048Z,458
2017-09-05T08:20:49.482Z,426
2017-09-05T08:21:51.909Z,374
2017-09-05T08:22:54.346Z,303
2017-09-05T08:23:56.781Z,283
2017-09-05T08:24:59.572Z,310
2017-09-05T08:26:02.006Z,336
2017-09-05T08:27:04.785Z,359
2017-09-05T08:28:07.225Z,362
2017-09-05T08:29:09.660Z,339
2017-09-05T08:30:12.094Z,308
2017-09-05T08:31:14.535Z,272
2017-09-05T08:32:16.963Z,278
2017-09-05T08:33:19.400Z,344
2017-09-05T08:34:21.837Z,348
2017-09-05T08:35:24.273Z,312
2017-09-05T08:36:26.705Z,294
2017-09-05T08:37:29.137Z,324
2017-09-05T08:38:31.910Z,355
2017-09-05T08:39:34.345Z,314
2017-09-05T08:40:36.791Z,330
2017-09-05T08:41:39.571Z,690
2017-09-05T08:42:41.999Z,514
2017-09-05T08:43:44.439Z,432
2017-09-05T08:44:47.229Z,457
2017-09-05T08:45:49.674Z,377
2017-09-05T08:46:52.111Z,379
2017-09-05T08:47:54.550Z,450
2017-09-05T08:48:56.984Z,401
2017-09-05T08:49:59.427Z,417
2017-09-05T08:51:01.865Z,417
2017-09-05T08:52:04.290Z,393
2017-09-05T08:53:06.736Z,418
2017-09-05T08:54:09.171Z,385
2017-09-05T08:55:11.615Z,394
2017-09-05T08:56:14.056Z,380
2017-09-05T08:57:16.499Z,386
2017-09-05T08:58:19.302Z,412
2017-09-05T08:59:21.746Z,396
2017-09-05T09:00:24.184Z,391
2017-09-05T09:01:26.622Z,393
2017-09-05T09:02:29.067Z,448
2017-09-05T09:03:31.503Z,386
2017-09-05T09:04:33.953Z,377
2017-09-05T09:05:36.391Z,445
2017-09-05T09:06:39.220Z,399
2017-09-05T09:07:41.665Z,388
2017-09-05T09:08:44.110Z,427
2017-09-05T09:09:46.556Z,455
2017-09-05T09:10:49.347Z,462
2017-09-05T09:11:51.785Z,455
2017-09-05T09:12:54.236Z,415
2017-09-05T09:13:56.678Z,418
2017-09-05T09:14:59.121Z,458
2017-09-05T09:16:01.577Z,468
2017-09-05T09:17:04.021Z,456
2017-09-05T09:18:06.463Z,450
2017-09-05T09:19:08.905Z,459
2017-09-05T09:20:11.357Z,518
2017-09-05T09:21:14.142Z,506
2017-09-05T09:22:16.591Z,465
2017-09-05T09:23:19.035Z,423
2017-09-05T09:24:21.940Z,400
2017-09-05T09:25:24.489Z,424
2017-09-05T09:26:26.934Z,429
2017-09-05T09:27:29.720Z,376
2017-09-05T09:28:32.164Z,391
2017-09-05T09:29:34.619Z,396
2017-09-05T09:30:37.392Z,325
2017-09-05T09:31:39.843Z,335
2017-09-05T09:32:42.298Z,353
2017-09-05T09:33:44.744Z,392
2017-09-05T09:34:47.197Z,432
2017-09-05T09:35:49.644Z,453
2017-09-05T09:36:52.094Z,449
2017-09-05T09:37:54.551Z,487
2017-09-05T09:38:57.005Z,504
2017-09-05T09:39:59.443Z,502
2017-09-05T09:41:01.898Z,490
2017-09-05T09:42:04.345Z,530
2017-09-05T09:43:06.795Z,585
2017-09-05T09:44:09.242Z,539
2017-09-05T09:45:12.046Z,488
2017-09-05T09:46:14.498Z,473
2017-09-05T09:47:16.974Z,412
2017-09-05T09:48:19.394Z,421
2017-09-05T09:49:21.844Z,413
2017-09-05T09:50:24.287Z,374
2017-09-05T09:51:26.734Z,415
2017-09-05T09:52:29.182Z,439
2017-09-05T09:53:31.637Z,451
2017-09-05T09:54:34.094Z,459
2017-09-05T09:55:36.541Z,424
2017-09-05T09:56:38.986Z,483
2017-09-05T09:57:41.437Z,414
2017-09-05T09:58:43.880Z,351
2017-09-05T09:59:46.336Z,339
2017-09-05T10:00:48.786Z,412
2017-09-05T10:01:51.229Z,521
2017-09-05T10:02:53.674Z,500
2017-09-05T10:03:56.131Z,468
2017-09-05T10:04:58.573Z,435
2017-09-05T10:06:01.013Z,397
2017-09-05T10:07:03.466Z,438
2017-09-05T10:08:05.905Z,460
2017-09-05T10:09:08.357Z,488
2017-09-05T10:10:10.808Z,515
2017-09-05T10:11:13.254Z,483
2017-09-05T10:12:16.414Z,474
2017-09-05T10:13:19.209Z,406
2017-09-05T10:14:21.651Z,415
2017-09-05T10:15:24.107Z,400
2017-09-05T10:16:26.548Z,416
2017-09-05T10:17:28.994Z,437
2017-09-05T10:18:31.784Z,440
2017-09-05T10:19:34.234Z,443
2017-09-05T10:20:36.681Z,556
2017-09-05T10:21:39.138Z,533
2017-09-05T10:22:41.913Z,484
2017-09-05T10:23:44.362Z,422
2017-09-05T10:24:46.810Z,397
2017-09-05T10:25:49.256Z,421
2017-09-05T10:26:51.707Z,473
2017-09-05T10:27:54.493Z,495
2017-09-05T10:28:56.946Z,507
2017-09-05T10:29:59.390Z,503
2017-09-05T10:31:01.838Z,466
2017-09-05T10:32:04.633Z,403
2017-09-05T10:33:07.081Z,502
2017-09-05T10:34:09.535Z,500
2017-09-05T10:35:11.983Z,419
2017-09-05T10:36:14.433Z,467
2017-09-05T10:37:16.879Z,571
2017-09-05T10:38:19.338Z,529
2017-09-05T10:39:21.783Z,514
2017-09-05T10:40:24.233Z,403
2017-09-05T10:41:26.686Z,440
2017-09-05T10:42:29.135Z,460
2017-09-05T10:43:31.927Z,472
2017-09-05T10:44:34.377Z,458
2017-09-05T10:45:36.826Z,464
2017-09-05T10:46:39.279Z,473
2017-09-05T10:47:41.727Z,439
2017-09-05T10:48:44.166Z,409
2017-09-05T10:49:46.617Z,465
2017-09-05T10:50:49.070Z,543
2017-09-05T10:51:51.515Z,464
2017-09-05T10:52:53.966Z,476
2017-09-05T10:53:56.423Z,479
2017-09-05T10:54:58.866Z,477
2017-09-05T10:56:01.328Z,473
2017-09-05T10:57:04.121Z,477
2017-09-05T10:58:06.561Z,456
2017-09-05T10:59:09.356Z,433
2017-09-05T11:00:11.806Z,411
2017-09-05T11:01:14.258Z,420
2017-09-05T11:02:16.714Z,427
2017-09-05T11:03:19.513Z,438
2017-09-05T11:04:21.963Z,433
2017-09-05T11:05:24.408Z,450
2017-09-05T11:06:26.855Z,469
2017-09-05T11:07:29.307Z,471
2017-09-05T11:08:31.763Z,452
2017-09-05T11:09:34.210Z,401
2017-09-05T11:10:36.660Z,350
2017-09-05T11:11:39.114Z,341
2017-09-05T11:12:41.565Z,366
2017-09-05T11:13:44.018Z,381
2017-09-05T11:14:46.469Z,376
2017-09-05T11:15:48.917Z,403
2017-09-05T11:16:51.373Z,415
2017-09-05T11:17:53.817Z,405
2017-09-05T11:18:56.269Z,424
2017-09-05T11:19:58.723Z,434
2017-09-05T11:21:01.516Z,438
2017-09-05T11:22:03.971Z,455
2017-09-05T11:23:06.416Z,453
2017-09-05T11:24:08.863Z,468
2017-09-05T11:25:11.313Z,447
2017-09-05T11:26:13.790Z,459
2017-09-05T11:27:16.268Z,417
2017-09-05T11:28:18.711Z,388
2017-09-05T11:29:21.165Z,384
2017-09-05T11:30:23.619Z,409
2017-09-05T11:31:26.069Z,407
2017-09-05T11:32:28.513Z,399
2017-09-05T11:33:30.965Z,403
2017-09-05T11:34:33.418Z,412
2017-09-05T11:35:35.876Z,402
2017-09-05T11:36:38.322Z,399
2017-09-05T11:37:40.773Z,397
2017-09-05T11:38:43.242Z,389
2017-09-05T11:39:45.689Z,397
2017-09-05T11:40:48.137Z,408
2017-09-05T11:41:50.581Z,465
2017-09-05T11:42:53.034Z,482
2017-09-05T11:43:55.495Z,392
2017-09-05T11:44:57.942Z,376
2017-09-05T11:46:00.385Z,398
2017-09-05T11:47:02.837Z,435
2017-09-05T11:48:05.286Z,410
2017-09-05T11:49:07.742Z,408
2017-09-05T11:50:10.199Z,420
2017-09-05T11:51:12.649Z,426
2017-09-05T11:52:15.099Z,419
2017-09-05T11:53:17.560Z,428
2017-09-05T11:54:20.005Z,425
2017-09-05T11:55:22.454Z,380
2017-09-05T11:56:24.904Z,391
2017-09-05T11:57:27.356Z,402
2017-09-05T11:58:29.798Z,379
2017-09-05T11:59:32.251Z,380
2017-09-05T12:00:34.702Z,387
2017-09-05T12:01:37.156Z,403
2017-09-05T12:02:39.595Z,413
2017-09-05T12:03:42.045Z,381
2017-09-05T12:04:44.527Z,391
2017-09-05T12:05:46.982Z,396
2017-09-05T12:06:49.435Z,367
2017-09-05T12:07:52.244Z,381
2017-09-05T12:08:55.030Z,389
2017-09-05T12:09:57.506Z,381
2017-09-05T12:10:59.938Z,369
2017-09-05T12:12:02.376Z,369
2017-09-05T12:13:04.832Z,364
2017-09-05T12:14:07.280Z,373
2017-09-05T12:15:09.734Z,370
2017-09-05T12:16:12.187Z,376
2017-09-05T12:17:14.626Z,394
2017-09-05T12:18:17.079Z,395
2017-09-05T12:19:19.538Z,364
2017-09-05T12:20:21.988Z,358
2017-09-05T12:21:24.444Z,351
2017-09-05T12:22:26.898Z,321
2017-09-05T12:23:30.029Z,317
2017-09-05T12:24:32.486Z,331
2017-09-05T12:25:34.936Z,338
2017-09-05T12:26:37.376Z,310
2017-09-05T12:27:39.834Z,307
2017-09-05T12:28:42.629Z,303
2017-09-05T12:29:45.084Z,302
2017-09-05T12:30:47.533Z,319
2017-09-05T12:31:50.327Z,305
2017-09-05T12:32:52.780Z,287
2017-09-05T12:33:55.228Z,285
2017-09-05T12:34:57.681Z,288
2017-09-05T12:36:00.124Z,287
2017-09-05T12:37:02.566Z,260
2017-09-05T12:38:05.021Z,261
2017-09-05T12:39:07.466Z,246
2017-09-05T12:40:09.917Z,235
2017-09-05T12:41:12.361Z,234
2017-09-05T12:42:14.813Z,214
2017-09-05T12:43:17.269Z,209
2017-09-05T12:44:19.728Z,209
2017-09-05T12:45:22.178Z,215
2017-09-05T12:46:24.626Z,219
2017-09-05T12:47:27.074Z,222
2017-09-05T12:48:29.528Z,222
2017-09-05T12:49:31.977Z,229
2017-09-05T12:50:34.430Z,241
2017-09-05T12:51:36.870Z,266
2017-09-05T12:52:39.331Z,252
2017-09-05T12:53:41.771Z,285
2017-09-05T12:54:44.217Z,347
2017-09-05T12:55:46.664Z,446
2017-09-05T12:56:49.116Z,423
2017-09-05T12:57:51.562Z,359
2017-09-05T12:58:54.010Z,366
2017-09-05T12:59:56.791Z,391
2017-09-05T13:00:59.246Z,338
2017-09-05T13:02:01.695Z,328
2017-09-05T13:03:04.150Z,315
2017-09-05T13:04:06.943Z,331
2017-09-05T13:05:09.389Z,372
2017-09-05T13:06:11.839Z,357
2017-09-05T13:07:14.288Z,340
2017-09-05T13:08:16.767Z,356
2017-09-05T13:09:19.185Z,383
2017-09-05T13:10:22.306Z,365
2017-09-05T13:11:24.755Z,334
2017-09-05T13:12:27.204Z,328
2017-09-05T13:13:30.000Z,325
2017-09-05T13:14:32.440Z,329
2017-09-05T13:15:34.896Z,298
2017-09-05T13:16:37.341Z,288
2017-09-05T13:17:39.802Z,282
2017-09-05T13:18:42.258Z,275
2017-09-05T13:19:45.047Z,233
2017-09-05T13:20:47.496Z,253
2017-09-05T13:21:49.943Z,222
2017-09-05T13:22:52.393Z,190
2017-09-05T13:23:54.837Z,173
2017-09-05T13:24:57.284Z,165
2017-09-05T13:25:59.744Z,154
2017-09-05T13:27:02.191Z,152
2017-09-05T13:28:04.630Z,153
2017-09-05T13:29:07.447Z,157
2017-09-05T13:30:10.236Z,166
2017-09-05T13:31:12.680Z,150
2017-09-05T13:32:15.128Z,151
2017-09-05T13:33:17.571Z,152
2017-09-05T13:34:20.015Z,158
2017-09-05T13:35:22.472Z,156
2017-09-05T13:36:24.915Z,155
2017-09-05T13:37:27.358Z,150
2017-09-05T13:38:30.150Z,149
2017-09-05T13:39:32.600Z,152
2017-09-05T13:40:35.389Z,186
2017-09-05T13:41:37.846Z,215
2017-09-05T13:42:40.625Z,233
2017-09-05T13:43:43.072Z,221
2017-09-05T13:44:45.523Z,201
2017-09-05T13:45:47.962Z,216
2017-09-05T13:46:50.407Z,187
2017-09-05T13:47:52.858Z,231
2017-09-05T13:48:55.303Z,251
2017-09-05T13:49:57.762Z,236
2017-09-05T13:51:00.545Z,298
2017-09-05T13:52:02.986Z,212
2017-09-05T13:53:05.437Z,294
2017-09-05T13:54:07.884Z,279
2017-09-05T13:55:10.323Z,192
2017-09-05T13:56:12.767Z,222
2017-09-05T13:57:15.212Z,231
2017-09-05T13:58:17.670Z,301
2017-09-05T13:59:20.106Z,231
2017-09-05T14:00:22.896Z,218
2017-09-05T14:01:25.350Z,238
2017-09-05T14:02:27.798Z,268
2017-09-05T14:03:30.247Z,276
2017-09-05T14:04:32.695Z,249
2017-09-05T14:05:35.143Z,271
2017-09-05T14:06:37.939Z,266
2017-09-05T14:07:40.387Z,275
2017-09-05T14:08:43.210Z,272
2017-09-05T14:09:45.662Z,213
2017-09-05T14:10:48.113Z,219
2017-09-05T14:11:50.559Z,189
2017-09-05T14:12:53.013Z,151
2017-09-05T14:13:55.461Z,151
2017-09-05T14:14:58.246Z,154
2017-09-05T14:16:00.702Z,139
2017-09-05T14:17:03.152Z,129
2017-09-05T14:18:05.597Z,130
2017-09-05T14:19:08.048Z,143
2017-09-05T14:20:10.497Z,138
2017-09-05T14:21:12.950Z,136
2017-09-05T14:22:15.401Z,150
2017-09-05T14:23:18.175Z,148
2017-09-05T14:24:20.626Z,163
2017-09-05T14:25:23.077Z,164
2017-09-05T14:26:25.530Z,142
2017-09-05T14:27:27.974Z,160
2017-09-05T14:28:30.417Z,178
2017-09-05T14:29:32.863Z,183
2017-09-05T14:30:35.310Z,178
2017-09-05T14:31:37.753Z,163
2017-09-05T14:32:40.211Z,171
2017-09-05T14:33:42.646Z,173
2017-09-05T14:34:45.101Z,172
2017-09-05T14:35:47.546Z,170
2017-09-05T14:36:49.993Z,160
2017-09-05T14:37:52.441Z,165
2017-09-05T14:38:55.242Z,172
2017-09-05T14:39:57.680Z,163
2017-09-05T14:41:00.135Z,228
2017-09-05T14:42:02.579Z,249
2017-09-05T14:43:05.022Z,251
2017-09-05T14:44:07.480Z,255
2017-09-05T14:45:09.928Z,271
2017-09-05T14:46:12.374Z,312